createdAt,value
2022-08-23T00:02:36.241Z,23.67
2022-08-23T00:05:41.521Z,23.68
2022-08-23T00:08:48.457Z,23.70
2022-08-23T00:11:55.833Z,23.74
2022-08-23T00:15:02.551Z,23.74
2022-08-23T00:18:07.820Z,23.72
2022-08-23T00:21:13.234Z,23.73
2022-08-23T00:24:19.169Z,23.74
2022-08-23T00:27:24.435Z,23.68
2022-08-23T00:30:31.927Z,23.74
2022-08-23T00:33:38.809Z,23.73
2022-08-23T00:36:45.016Z,23.75
2022-08-23T00:39:50.729Z,23.71
2022-08-23T00:43:15.442Z,23.75
2022-08-23T00:46:48.462Z,23.75
2022-08-23T00:49:56.414Z,23.72
2022-08-23T00:53:04.274Z,23.75
2022-08-23T00:56:10.574Z,23.76
2022-08-23T00:59:15.750Z,23.77
2022-08-23T01:02:22.729Z,23.78
2022-08-23T01:05:31.352Z,23.80
2022-08-23T01:08:38.362Z,23.84
2022-08-23T01:11:46.926Z,23.85
2022-08-23T01:14:55.553Z,23.87
2022-08-23T01:18:04.567Z,23.88
2022-08-23T01:21:13.562Z,23.86
2022-08-23T01:24:57.796Z,23.88
2022-08-23T01:27:46.193Z,23.91
2022-08-23T01:30:51.870Z,23.90
2022-08-23T01:33:59.498Z,23.92
2022-08-23T01:37:07.224Z,23.95
2022-08-23T01:40:15.273Z,23.94
2022-08-23T01:43:21.761Z,23.93
2022-08-23T01:46:27.387Z,23.93
2022-08-23T01:49:32.577Z,23.91
2022-08-23T01:52:38.519Z,23.92
2022-08-23T01:55:53.800Z,23.95
2022-08-23T01:58:59.178Z,24.01
2022-08-23T02:02:05.343Z,23.98
2022-08-23T02:05:11.236Z,23.99
2022-08-23T02:08:34.009Z,24.02
2022-08-23T02:11:41.723Z,24.02
2022-08-23T02:14:47.000Z,23.97
2022-08-23T02:17:53.117Z,23.92
2022-08-23T02:20:58.634Z,23.89
2022-08-23T02:24:06.402Z,23.84
2022-08-23T02:27:14.853Z,23.81
2022-08-23T02:30:21.112Z,23.73
2022-08-23T02:33:26.171Z,23.65
2022-08-23T02:36:31.865Z,23.62
2022-08-23T02:39:38.829Z,23.62
2022-08-23T02:42:45.912Z,23.58
2022-08-23T02:45:52.040Z,23.45
2022-08-23T02:48:57.536Z,23.36
2022-08-23T02:52:02.789Z,23.33
2022-08-23T02:55:08.556Z,23.25
2022-08-23T02:58:15.388Z,23.25
2022-08-23T03:01:21.662Z,23.25
2022-08-23T03:04:27.031Z,23.20
2022-08-23T03:07:32.512Z,23.10
2022-08-23T03:10:43.380Z,23.08
2022-08-23T03:13:50.796Z,23.06
2022-08-23T03:16:58.355Z,23.09
2022-08-23T03:20:03.955Z,23.06
2022-08-23T03:23:08.936Z,23.00
2022-08-23T03:26:14.560Z,22.99
2022-08-23T03:29:21.517Z,23.02
2022-08-23T03:32:27.404Z,22.99
2022-08-23T03:35:32.992Z,23.00
2022-08-23T03:38:38.642Z,23.00
2022-08-23T03:41:43.909Z,22.98
2022-08-23T03:44:50.345Z,22.96
2022-08-23T03:48:02.628Z,22.97
2022-08-23T03:51:07.793Z,22.93
2022-08-23T03:54:12.878Z,22.82
2022-08-23T03:57:18.224Z,22.82
2022-08-23T04:00:24.763Z,22.77
2022-08-23T04:03:29.919Z,22.78
2022-08-23T04:06:35.481Z,22.79
2022-08-23T04:09:41.129Z,22.73
2022-08-23T04:12:50.226Z,22.78
2022-08-23T04:15:57.361Z,22.83
2022-08-23T04:19:03.153Z,22.84
2022-08-23T04:22:13.572Z,22.84
2022-08-23T04:25:34.519Z,22.89
2022-08-23T04:28:40.948Z,22.90
2022-08-23T04:31:48.955Z,22.96
2022-08-23T04:34:53.944Z,23.06
2022-08-23T04:37:58.871Z,23.03
2022-08-23T04:41:21.900Z,23.09
2022-08-23T04:44:27.252Z,23.17
2022-08-23T04:47:34.872Z,23.25
2022-08-23T04:50:40.605Z,23.29
2022-08-23T04:53:47.029Z,23.37
2022-08-23T04:56:52.720Z,23.51
2022-08-23T04:59:58.212Z,23.56
2022-08-23T05:03:04.813Z,23.58
2022-08-23T05:06:10.193Z,23.72
2022-08-23T05:09:20.370Z,23.92
2022-08-23T05:12:25.840Z,24.10
2022-08-23T05:15:31.051Z,24.24
2022-08-23T05:18:37.744Z,24.27
2022-08-23T05:21:42.929Z,24.43
2022-08-23T05:24:48.409Z,24.60
2022-08-23T05:27:57.225Z,24.76
2022-08-23T05:31:04.163Z,24.91
2022-08-23T05:34:11.092Z,24.95
2022-08-23T05:37:16.897Z,25.08
2022-08-23T05:40:22.512Z,25.15
2022-08-23T05:43:28.218Z,25.12
2022-08-23T05:46:33.433Z,25.20
2022-08-23T05:49:40.313Z,25.40
2022-08-23T05:52:50.373Z,25.79
2022-08-23T05:55:56.072Z,26.06
2022-08-23T05:59:02.337Z,26.30
2022-08-23T06:02:07.633Z,26.52
2022-08-23T06:05:14.133Z,26.84
2022-08-23T06:08:20.316Z,27.08
2022-08-23T06:11:26.544Z,27.21
2022-08-23T06:14:32.191Z,27.17
2022-08-23T06:17:37.633Z,27.30
2022-08-23T06:20:44.139Z,27.38
2022-08-23T06:23:49.644Z,27.38
2022-08-23T06:26:54.842Z,27.49
2022-08-23T06:29:59.864Z,27.47
2022-08-23T06:33:05.513Z,27.24
2022-08-23T06:36:14.433Z,27.28
2022-08-23T06:39:20.416Z,27.40
2022-08-23T06:42:41.258Z,27.44
2022-08-23T06:45:52.405Z,27.36
2022-08-23T06:49:05.543Z,27.45
2022-08-23T06:52:12.497Z,27.40
2022-08-23T06:55:18.522Z,27.51
2022-08-23T06:58:24.065Z,27.84
2022-08-23T07:01:47.989Z,27.98
2022-08-23T07:04:55.944Z,28.01
2022-08-23T07:08:02.655Z,27.89
2022-08-23T07:11:07.913Z,28.06
2022-08-23T07:14:19.096Z,28.08
2022-08-23T07:17:24.060Z,28.21
2022-08-23T07:20:29.533Z,28.52
2022-08-23T07:23:36.489Z,28.67
2022-08-23T07:26:41.846Z,28.78
2022-08-23T07:29:47.081Z,28.92
2022-08-23T07:32:52.719Z,29.09
2022-08-23T07:35:57.553Z,29.09
2022-08-23T07:39:05.852Z,28.90
2022-08-23T07:42:23.412Z,28.98
2022-08-23T07:45:29.161Z,28.87
2022-08-23T07:48:53.045Z,28.69
2022-08-23T07:51:59.961Z,28.87
2022-08-23T07:55:07.424Z,29.01
2022-08-23T07:58:12.992Z,29.31
2022-08-23T08:01:19.719Z,29.45
2022-08-23T08:04:24.907Z,29.62
2022-08-23T08:07:35.436Z,29.70
2022-08-23T08:10:44.543Z,29.76
2022-08-23T08:13:50.946Z,30.00
2022-08-23T08:16:58.582Z,30.09
2022-08-23T08:20:04.109Z,30.07
2022-08-23T08:23:09.260Z,30.25
2022-08-23T08:26:16.151Z,30.34
2022-08-23T08:29:21.248Z,29.95
2022-08-23T08:32:26.627Z,30.15
2022-08-23T08:35:32.742Z,30.17
2022-08-23T08:38:50.267Z,30.23
2022-08-23T08:42:05.466Z,30.14
2022-08-23T08:45:12.406Z,30.46
2022-08-23T08:48:21.507Z,30.49
2022-08-23T08:51:33.508Z,30.32
2022-08-23T08:54:39.256Z,30.52
2022-08-23T08:57:47.259Z,30.85
2022-08-23T09:00:56.553Z,31.19
2022-08-23T09:04:02.287Z,31.30
2022-08-23T09:07:12.162Z,31.42
2022-08-23T09:10:28.296Z,31.49
2022-08-23T09:13:53.776Z,31.16
2022-08-23T09:17:05.655Z,31.01
2022-08-23T09:20:11.928Z,30.78
2022-08-23T09:23:20.025Z,30.49
2022-08-23T09:26:26.179Z,30.37
2022-08-23T09:29:34.841Z,30.43
2022-08-23T09:32:42.131Z,30.48
2022-08-23T09:36:03.340Z,30.47
2022-08-23T09:39:09.983Z,30.36
2022-08-23T09:42:27.988Z,30.40
2022-08-23T09:45:35.970Z,30.68
2022-08-23T09:48:42.736Z,30.82
2022-08-23T09:51:54.214Z,31.16
2022-08-23T09:55:01.227Z,31.11
2022-08-23T09:58:08.260Z,31.06
2022-08-23T10:01:20.429Z,31.19
2022-08-23T10:04:31.075Z,31.42
2022-08-23T10:07:38.440Z,31.24
2022-08-23T10:10:50.986Z,30.95
2022-08-23T10:17:35.237Z,30.93
2022-08-23T10:20:43.081Z,31.10
2022-08-23T10:23:52.266Z,31.18
2022-08-23T10:27:34.960Z,31.18
2022-08-23T10:30:47.522Z,31.05
2022-08-23T10:34:01.009Z,31.13
2022-08-23T10:37:14.397Z,30.90
2022-08-23T10:40:25.737Z,30.83
2022-08-23T10:43:36.120Z,30.65
2022-08-23T10:46:46.508Z,30.86
2022-08-23T10:49:53.904Z,30.94
2022-08-23T10:53:04.018Z,31.01
2022-08-23T10:56:13.539Z,30.90
2022-08-23T10:59:20.929Z,31.00
2022-08-23T11:02:31.639Z,30.78
2022-08-23T11:05:40.545Z,30.92
2022-08-23T11:08:47.920Z,30.90
2022-08-23T11:12:07.355Z,31.11
2022-08-23T11:15:44.790Z,31.30
2022-08-23T11:18:51.645Z,31.08
2022-08-23T11:22:13.631Z,30.87
2022-08-23T11:25:33.656Z,30.62
2022-08-23T11:28:43.199Z,30.59
2022-08-23T11:31:52.137Z,30.39
2022-08-23T11:35:04.005Z,30.30
2022-08-23T11:38:10.856Z,30.28
2022-08-23T11:41:23.565Z,29.89
2022-08-23T11:44:34.780Z,29.72
2022-08-23T11:47:41.600Z,29.55
2022-08-23T11:50:58.103Z,29.53
2022-08-23T11:54:22.657Z,29.53
2022-08-23T11:57:36.784Z,29.49
2022-08-23T12:00:56.097Z,29.61
2022-08-23T12:04:08.301Z,29.56
2022-08-23T12:07:13.765Z,29.63
2022-08-23T12:10:24.468Z,29.71
2022-08-23T12:13:33.645Z,29.84
2022-08-23T12:16:44.141Z,29.81
2022-08-23T12:19:58.237Z,29.89
2022-08-23T12:23:14.043Z,30.07
2022-08-23T12:26:26.688Z,30.18
2022-08-23T12:29:39.674Z,30.07
2022-08-23T12:32:50.567Z,29.84
2022-08-23T12:36:01.822Z,29.87
2022-08-23T12:39:11.906Z,30.07
2022-08-23T12:42:20.003Z,29.78
2022-08-23T12:45:27.020Z,29.58
2022-08-23T12:48:33.667Z,29.67
2022-08-23T12:51:43.107Z,29.55
2022-08-23T12:54:54.996Z,29.38
2022-08-23T12:58:00.252Z,29.21
2022-08-23T13:01:08.847Z,29.01
2022-08-23T13:04:15.711Z,29.10
2022-08-23T13:07:23.355Z,29.27
2022-08-23T13:10:28.529Z,29.27
2022-08-23T13:13:33.959Z,29.19
2022-08-23T13:16:44.987Z,29.17
2022-08-23T13:19:51.161Z,29.26
2022-08-23T13:22:57.586Z,29.09
2022-08-23T13:26:17.613Z,29.05
2022-08-23T13:29:24.388Z,29.20
2022-08-23T13:32:41.742Z,29.23
2022-08-23T13:35:49.760Z,28.95
2022-08-23T13:38:56.199Z,29.08
2022-08-23T13:42:01.455Z,29.07
2022-08-23T13:45:13.832Z,29.04
2022-08-23T13:48:22.293Z,28.94
2022-08-23T13:51:30.063Z,28.87
2022-08-23T13:54:35.857Z,28.82
2022-08-23T13:57:41.325Z,28.86
2022-08-23T14:00:55.390Z,28.63
2022-08-23T14:04:02.644Z,28.68
2022-08-23T14:07:08.014Z,28.63
2022-08-23T14:10:13.657Z,28.70
2022-08-23T14:13:20.926Z,28.69
2022-08-23T14:16:33.407Z,28.64
2022-08-23T14:20:32.943Z,28.68
2022-08-23T14:23:11.933Z,28.56
2022-08-23T14:26:19.385Z,28.65
2022-08-23T14:29:25.006Z,28.56
2022-08-23T14:32:30.693Z,28.55
2022-08-23T14:35:37.696Z,28.55
2022-08-23T14:38:42.858Z,28.58
2022-08-23T14:41:52.090Z,28.52
2022-08-23T14:44:57.753Z,28.52
2022-08-23T14:48:02.988Z,28.41
2022-08-23T14:51:18.301Z,28.30
2022-08-23T14:54:25.248Z,28.29
2022-08-23T14:57:30.594Z,28.14
2022-08-23T15:00:36.933Z,28.04
2022-08-23T15:03:42.928Z,28.11
2022-08-23T15:07:16.128Z,28.12
2022-08-23T15:13:55.584Z,28.22
2022-08-23T15:17:01.219Z,28.20
2022-08-23T15:20:07.250Z,28.14
2022-08-23T15:23:14.049Z,28.10
2022-08-23T15:26:21.494Z,28.01
2022-08-23T15:29:27.070Z,27.97
2022-08-23T15:32:33.191Z,27.93
2022-08-23T15:35:39.899Z,27.90
2022-08-23T15:38:48.231Z,27.87
2022-08-23T15:41:53.757Z,27.92
2022-08-23T15:44:59.293Z,27.66
2022-08-23T15:48:06.962Z,27.72
2022-08-23T15:51:13.209Z,27.78
2022-08-23T15:54:19.565Z,27.76
2022-08-23T15:57:28.046Z,27.84
2022-08-23T16:00:33.681Z,27.79
2022-08-23T16:03:42.253Z,27.65
2022-08-23T16:06:48.194Z,27.51
2022-08-23T16:09:54.746Z,27.43
2022-08-23T16:12:59.969Z,27.27
2022-08-23T16:16:05.636Z,27.31
2022-08-23T16:19:11.110Z,27.32
2022-08-23T16:22:16.860Z,27.23
2022-08-23T16:25:23.872Z,27.22
2022-08-23T16:28:29.478Z,27.15
2022-08-23T16:31:38.558Z,27.21
2022-08-23T16:34:44.879Z,27.28
2022-08-23T16:37:50.689Z,27.16
2022-08-23T16:40:57.968Z,27.21
2022-08-23T16:44:03.623Z,27.05
2022-08-23T16:47:09.869Z,26.83
2022-08-23T16:50:15.208Z,26.95
2022-08-23T16:53:20.653Z,27.04
2022-08-23T16:56:28.497Z,27.12
2022-08-23T16:59:39.732Z,27.17
2022-08-23T17:02:46.170Z,27.25
2022-08-23T17:05:51.225Z,27.27
2022-08-23T17:08:56.116Z,27.36
2022-08-23T17:12:03.250Z,27.33
2022-08-23T17:15:09.208Z,27.29
2022-08-23T17:18:14.219Z,27.30
2022-08-23T17:21:19.772Z,27.37
2022-08-23T17:24:25.557Z,27.45
2022-08-23T17:27:32.508Z,27.38
2022-08-23T17:30:37.580Z,27.44
2022-08-23T17:33:43.224Z,27.49
2022-08-23T17:36:49.618Z,27.47
2022-08-23T17:39:54.691Z,27.59
2022-08-23T17:43:01.828Z,27.65
2022-08-23T17:46:07.201Z,27.71
2022-08-23T17:49:12.973Z,27.70
2022-08-23T17:52:18.965Z,27.72
2022-08-23T17:55:24.084Z,27.69
2022-08-23T17:58:31.609Z,27.64
2022-08-23T18:01:37.156Z,27.57
2022-08-23T18:04:42.338Z,27.50
2022-08-23T18:07:47.341Z,27.54
2022-08-23T18:10:52.320Z,27.53
2022-08-23T18:13:59.324Z,27.41
2022-08-23T18:17:04.502Z,27.34
2022-08-23T18:20:11.772Z,27.21
2022-08-23T18:23:17.388Z,27.09
2022-08-23T18:26:40.496Z,27.01
2022-08-23T18:29:51.698Z,27.06
2022-08-23T18:32:57.710Z,27.05
2022-08-23T18:36:07.811Z,27.09
2022-08-23T18:39:14.857Z,26.96
2022-08-23T18:42:20.584Z,26.85
2022-08-23T18:45:27.200Z,26.92
2022-08-23T18:48:33.144Z,26.90
2022-08-23T18:51:38.969Z,26.81
2022-08-23T18:54:44.191Z,26.80
2022-08-23T18:57:50.108Z,26.77
2022-08-23T19:00:57.119Z,26.77
2022-08-23T19:04:03.644Z,26.66
2022-08-23T19:07:08.881Z,26.67
2022-08-23T19:10:19.725Z,26.60
2022-08-23T19:13:25.554Z,26.59
2022-08-23T19:16:33.080Z,26.60
2022-08-23T19:19:38.306Z,26.43
2022-08-23T19:22:44.253Z,26.42
2022-08-23T19:25:49.464Z,26.42
2022-08-23T19:28:54.645Z,26.37
2022-08-23T19:32:04.281Z,26.31
2022-08-23T19:35:12.879Z,26.27
2022-08-23T19:38:18.557Z,26.24
2022-08-23T19:41:24.440Z,26.18
2022-08-23T19:44:31.305Z,26.16
2022-08-23T19:47:40.394Z,26.12
2022-08-23T19:50:46.724Z,26.12
2022-08-23T19:54:10.899Z,26.13
2022-08-23T19:57:17.187Z,26.09
2022-08-23T20:00:23.885Z,26.07
2022-08-23T20:03:30.781Z,26.04
2022-08-23T20:06:36.562Z,26.02
2022-08-23T20:09:41.979Z,26.01
2022-08-23T20:12:47.426Z,25.99
2022-08-23T20:15:56.094Z,26.00
2022-08-23T20:19:03.615Z,25.94
2022-08-23T20:22:26.542Z,25.93
2022-08-23T20:25:32.030Z,25.89
2022-08-23T20:28:36.993Z,25.84
2022-08-23T20:31:48.238Z,25.88
2022-08-23T20:34:54.921Z,25.85
2022-08-23T20:38:00.071Z,25.80
2022-08-23T20:41:05.706Z,25.80
2022-08-23T20:44:12.065Z,25.78
2022-08-23T20:47:17.601Z,25.78
2022-08-23T20:50:24.131Z,25.79
2022-08-23T20:53:29.796Z,25.80
2022-08-23T20:56:35.267Z,25.83
2022-08-23T20:59:44.382Z,25.77
2022-08-23T21:02:50.268Z,25.75
2022-08-23T21:06:04.286Z,25.73
2022-08-23T21:09:10.653Z,25.74
2022-08-23T21:12:15.794Z,25.69
2022-08-23T21:15:20.988Z,25.64
2022-08-23T21:18:26.196Z,25.62
2022-08-23T21:21:33.087Z,25.59
2022-08-23T21:24:38.603Z,25.56
2022-08-23T21:27:43.844Z,25.59
2022-08-23T21:30:49.463Z,25.60
2022-08-23T21:33:55.545Z,25.61
2022-08-23T21:37:02.485Z,25.57
2022-08-23T21:40:08.329Z,25.59
2022-08-23T21:43:13.980Z,25.59
2022-08-23T21:46:19.062Z,25.57
2022-08-23T21:49:24.468Z,25.56
2022-08-23T21:52:30.715Z,25.60
2022-08-23T21:55:36.901Z,25.58
2022-08-23T21:58:42.596Z,25.62
2022-08-23T22:01:48.427Z,25.64
2022-08-23T22:04:53.983Z,25.66
2022-08-23T22:08:01.025Z,25.66
2022-08-23T22:11:07.447Z,25.58
2022-08-23T22:14:16.644Z,25.60
2022-08-23T22:17:22.142Z,25.51
2022-08-23T22:20:27.397Z,25.50
2022-08-23T22:23:34.377Z,25.42
2022-08-23T22:26:39.415Z,25.40
2022-08-23T22:29:46.475Z,25.36
2022-08-23T22:32:52.096Z,25.41
2022-08-23T22:36:02.959Z,25.40
2022-08-23T22:39:09.853Z,25.39
2022-08-23T22:42:16.425Z,25.42
2022-08-23T22:45:21.356Z,25.41
2022-08-23T22:48:27.236Z,25.42
2022-08-23T22:51:33.589Z,25.44
2022-08-23T22:54:39.829Z,25.39
2022-08-23T22:57:45.404Z,25.38
2022-08-23T23:00:50.768Z,25.33
2022-08-23T23:03:57.246Z,25.31
2022-08-23T23:07:02.753Z,25.28
2022-08-23T23:10:10.272Z,25.27
2022-08-23T23:13:15.582Z,25.22
2022-08-23T23:16:22.060Z,25.15
2022-08-23T23:19:45.959Z,25.12
2022-08-23T23:22:52.045Z,25.13
2022-08-23T23:25:59.059Z,25.07
2022-08-23T23:29:05.019Z,25.05
2022-08-23T23:32:10.604Z,25.01
2022-08-23T23:35:16.158Z,25.02
2022-08-23T23:38:21.239Z,24.98
2022-08-23T23:41:27.605Z,24.96
2022-08-23T23:44:32.669Z,25.04
2022-08-23T23:47:37.804Z,25.09
2022-08-23T23:50:45.231Z,25.06
2022-08-23T23:53:53.005Z,24.94
2022-08-23T23:57:00.279Z,24.91
